createdAt,value
2023-02-23T06:02:59.219Z,196.65
2023-02-23T06:05:29.966Z,179.38
2023-02-23T06:08:06.233Z,191.45
2023-02-23T06:10:36.339Z,185.85
2023-02-23T06:13:13.173Z,177.68
2023-02-23T06:15:43.511Z,217.35
2023-02-23T06:18:23.275Z,186.00
2023-02-23T06:20:53.345Z,197.98
2023-02-23T06:23:30.237Z,178.43
2023-02-23T06:26:01.049Z,189.35
2023-02-23T06:28:38.268Z,208.07
2023-02-23T06:31:09.062Z,181.75
2023-02-23T06:33:48.259Z,174.48
2023-02-23T06:36:25.222Z,189.48
2023-02-23T06:38:58.443Z,209.50
2023-02-23T06:41:35.260Z,194.43
2023-02-23T06:44:05.331Z,214.75
2023-02-23T06:46:43.316Z,211.77
2023-02-23T06:49:16.869Z,192.25
2023-02-23T06:51:54.274Z,204.27
2023-02-23T06:54:31.325Z,210.07
2023-02-23T06:57:01.379Z,180.23
2023-02-23T06:59:38.280Z,199.90
2023-02-23T07:02:09.797Z,198.35
2023-02-23T07:04:49.284Z,197.95
2023-02-23T07:07:19.387Z,185.60
2023-02-23T07:09:56.303Z,188.00
2023-02-23T07:12:33.360Z,190.85
2023-02-23T07:15:03.460Z,221.27
2023-02-23T07:17:40.259Z,185.93
2023-02-23T07:20:15.475Z,171.38
2023-02-23T07:22:52.295Z,171.80
2023-02-23T07:25:29.341Z,189.98
2023-02-23T07:28:00.253Z,197.73
2023-02-23T07:30:36.320Z,178.05
2023-02-23T07:33:06.369Z,203.45
2023-02-23T07:35:45.337Z,200.38
2023-02-23T07:38:15.496Z,200.57
2023-02-23T07:40:52.342Z,190.38
2023-02-23T07:43:30.352Z,204.50
2023-02-23T07:46:04.399Z,168.90
2023-02-23T07:48:41.306Z,193.55
2023-02-23T07:51:17.608Z,191.52
2023-02-23T07:53:55.319Z,177.63
2023-02-23T07:56:32.323Z,180.05
2023-02-23T07:59:02.455Z,161.20
2023-02-23T08:01:39.360Z,171.10
2023-02-23T08:04:09.591Z,169.68
2023-02-23T08:06:48.332Z,169.13
2023-02-23T08:09:26.382Z,167.38
2023-02-23T08:12:03.342Z,151.55
2023-02-23T08:14:33.583Z,145.38
2023-02-23T08:17:10.358Z,159.35
2023-02-23T08:19:47.398Z,169.05
2023-02-23T08:22:20.039Z,150.18
2023-02-23T08:24:56.362Z,153.63
2023-02-23T08:27:33.366Z,147.63
2023-02-23T08:30:05.448Z,147.00
2023-02-23T08:32:44.437Z,149.52
2023-02-23T08:35:15.034Z,135.07
2023-02-23T08:37:54.377Z,135.05
2023-02-23T08:40:24.428Z,135.90
2023-02-23T08:43:01.419Z,135.70
2023-02-23T08:45:32.062Z,138.95
2023-02-23T08:48:08.425Z,131.07
2023-02-23T08:50:38.708Z,121.75
2023-02-23T08:53:17.444Z,125.63
2023-02-23T08:55:54.382Z,124.70
2023-02-23T08:58:24.427Z,140.00
2023-02-23T09:01:01.425Z,123.32
2023-02-23T09:03:33.582Z,125.60
2023-02-23T09:06:19.514Z,117.43
2023-02-23T09:08:59.429Z,110.55
2023-02-23T09:11:29.535Z,120.18
2023-02-23T09:14:06.407Z,98.30
2023-02-23T09:16:46.458Z,102.15
2023-02-23T09:19:16.634Z,109.53
2023-02-23T09:21:53.401Z,103.82
2023-02-23T09:24:32.517Z,92.35
2023-02-23T09:27:02.502Z,82.82
2023-02-23T09:29:39.456Z,78.25
2023-02-23T09:32:09.797Z,83.65
2023-02-23T09:34:46.427Z,77.97
2023-02-23T09:37:23.458Z,69.25
2023-02-23T09:40:02.481Z,74.10
2023-02-23T09:42:48.447Z,74.35
2023-02-23T09:45:32.937Z,69.95
2023-02-23T09:48:23.658Z,64.75
2023-02-23T09:50:57.204Z,61.20
2023-02-23T09:53:45.860Z,59.92
2023-02-23T09:59:02.551Z,58.97
2023-02-23T10:01:56.242Z,51.77
2023-02-23T10:04:36.574Z,52.47
2023-02-23T10:07:24.075Z,56.03
2023-02-23T10:10:18.690Z,47.58
2023-02-23T10:13:05.591Z,46.90
2023-02-23T10:15:56.549Z,48.05
2023-02-23T10:18:46.602Z,44.80
2023-02-23T10:21:30.543Z,44.90
2023-02-23T10:24:13.592Z,51.33
2023-02-23T10:26:57.595Z,44.33
2023-02-23T10:29:34.632Z,40.20
2023-02-23T10:32:23.747Z,40.28
2023-02-23T10:34:58.526Z,36.85
2023-02-23T10:37:35.566Z,38.60
2023-02-23T10:40:13.679Z,40.63
2023-02-23T10:42:50.722Z,36.47
2023-02-23T10:45:25.996Z,37.40
2023-02-23T10:48:10.636Z,35.17
2023-02-23T10:50:43.949Z,30.90
2023-02-23T10:53:26.772Z,32.42
2023-02-23T10:56:11.398Z,29.98
2023-02-23T10:58:56.575Z,31.15
2023-02-23T11:02:01.339Z,26.48
2023-02-23T11:04:43.659Z,25.88
2023-02-23T11:07:21.786Z,25.30
2023-02-23T11:09:59.649Z,26.25
2023-02-23T11:12:41.892Z,23.83
2023-02-23T11:15:49.962Z,27.05
2023-02-23T11:18:26.240Z,26.88
2023-02-23T11:21:06.645Z,23.92
2023-02-23T11:23:39.510Z,30.02
2023-02-23T11:26:45.629Z,28.60
2023-02-23T11:29:29.603Z,31.60
2023-02-23T11:32:05.333Z,30.30
2023-02-23T11:34:49.642Z,29.05
2023-02-23T11:37:26.066Z,27.65
2023-02-23T11:40:04.593Z,28.17
2023-02-23T11:42:35.990Z,28.65
2023-02-23T11:45:15.685Z,31.00
2023-02-23T11:47:51.202Z,28.98
2023-02-23T11:50:36.650Z,30.75
2023-02-23T11:53:19.206Z,32.35
2023-02-23T11:56:01.671Z,33.22
2023-02-23T11:58:40.807Z,36.83
2023-02-23T12:01:20.627Z,36.60
2023-02-23T12:03:55.149Z,33.95
2023-02-23T12:06:41.734Z,29.80
2023-02-23T12:09:23.973Z,30.35
2023-02-23T12:12:08.671Z,30.70
2023-02-23T12:14:56.659Z,30.55
2023-02-23T12:17:30.858Z,25.88
2023-02-23T12:20:11.772Z,25.05
2023-02-23T12:22:45.946Z,22.73
2023-02-23T12:25:34.800Z,24.02
2023-02-23T12:28:18.911Z,26.02
2023-02-23T12:31:02.745Z,25.70
2023-02-23T12:33:39.546Z,24.20
2023-02-23T12:36:32.676Z,25.20
2023-02-23T12:39:15.702Z,26.38
2023-02-23T12:41:59.928Z,25.42
2023-02-23T12:44:50.763Z,24.17
2023-02-23T12:47:35.002Z,28.45
2023-02-23T12:50:18.693Z,32.00
2023-02-23T12:53:00.781Z,26.92
2023-02-23T13:01:04.807Z,28.83
2023-02-23T13:04:07.966Z,29.65
2023-02-23T13:14:45.753Z,26.92
2023-02-23T13:17:42.887Z,29.98
2023-02-23T13:20:25.504Z,29.30
2023-02-23T13:23:15.799Z,25.30
2023-02-23T13:25:57.003Z,26.75
2023-02-23T13:28:48.720Z,30.10
2023-02-23T13:31:34.988Z,27.48
2023-02-23T13:34:13.709Z,28.52
2023-02-23T13:36:55.071Z,23.80
2023-02-23T13:39:49.326Z,24.80
2023-02-23T13:42:49.793Z,21.75
2023-02-23T13:45:45.844Z,22.77
2023-02-23T13:48:19.097Z,22.40
2023-02-23T13:51:06.761Z,22.88
2023-02-23T13:53:50.757Z,24.45
2023-02-23T13:56:30.803Z,23.95
2023-02-23T13:59:04.559Z,29.38
2023-02-23T14:13:41.679Z,34.92
2023-02-23T14:16:23.146Z,26.25
2023-02-23T14:19:19.737Z,25.05
2023-02-23T14:22:02.659Z,22.70
2023-02-23T14:24:39.670Z,27.40
2023-02-23T14:27:40.483Z,23.95
2023-02-23T14:30:37.851Z,23.35
2023-02-23T14:33:45.884Z,19.98
2023-02-23T14:36:46.667Z,22.40
2023-02-23T14:39:33.808Z,21.38
2023-02-23T14:42:10.329Z,21.67
2023-02-23T14:44:49.968Z,22.52
2023-02-23T14:47:25.337Z,25.65
2023-02-23T14:50:07.705Z,25.45
2023-02-23T14:52:44.746Z,25.50
2023-02-23T14:55:31.670Z,25.48
2023-02-23T14:58:09.828Z,26.05
2023-02-23T15:00:46.634Z,26.98
2023-02-23T15:03:28.842Z,27.33
2023-02-23T15:06:02.516Z,27.42
2023-02-23T15:08:42.838Z,18.98
2023-02-23T15:11:17.583Z,21.55
2023-02-23T15:14:01.777Z,14.98
2023-02-23T15:16:36.519Z,17.15
2023-02-23T15:19:16.780Z,21.30
2023-02-23T15:21:53.194Z,20.23
2023-02-23T15:24:35.853Z,28.67
2023-02-23T15:27:12.848Z,31.75
2023-02-23T15:29:43.766Z,25.73
2023-02-23T15:32:27.940Z,29.20
2023-02-23T15:35:05.120Z,28.05
2023-02-23T15:37:56.582Z,30.50
2023-02-23T15:40:37.213Z,36.88
2023-02-23T15:43:15.084Z,27.30
2023-02-23T15:45:51.924Z,37.22
2023-02-23T15:48:36.280Z,41.45
2023-02-23T15:51:09.207Z,32.75
2023-02-23T15:53:49.784Z,31.60
2023-02-23T15:56:27.988Z,24.20
2023-02-23T15:59:10.875Z,23.17
2023-02-23T16:01:47.113Z,28.05
2023-02-23T16:04:27.985Z,25.67
2023-02-23T16:07:18.090Z,29.63
2023-02-23T16:10:02.803Z,31.35
2023-02-23T16:12:35.596Z,25.77
2023-02-23T16:15:19.904Z,26.25
2023-02-23T16:17:57.920Z,28.55
2023-02-23T16:20:44.898Z,40.67
2023-02-23T16:23:34.176Z,41.60
2023-02-23T16:26:18.417Z,39.85
2023-02-23T16:28:50.140Z,45.80
2023-02-23T16:31:35.066Z,48.83
2023-02-23T16:34:11.873Z,52.03
2023-02-23T16:36:43.460Z,48.95
2023-02-23T16:39:23.795Z,43.22
2023-02-23T16:42:00.951Z,47.67
2023-02-23T16:44:42.986Z,46.88
2023-02-23T16:47:43.877Z,48.78
2023-02-23T16:50:19.995Z,35.33
2023-02-23T16:53:01.082Z,44.40
2023-02-23T16:55:39.438Z,41.42
2023-02-23T16:58:24.963Z,32.92
2023-02-23T17:00:56.534Z,37.33
2023-02-23T17:03:43.762Z,32.70
2023-02-23T17:06:17.608Z,38.50
2023-02-23T17:08:58.604Z,39.67
2023-02-23T17:11:32.152Z,38.78
2023-02-23T17:14:08.951Z,43.65
2023-02-23T17:16:39.220Z,39.88
2023-02-23T17:19:15.903Z,42.65
2023-02-23T17:21:45.964Z,31.92
2023-02-23T17:24:22.917Z,33.10
2023-02-23T17:26:56.368Z,42.13
2023-02-23T17:29:32.966Z,37.72
2023-02-23T17:32:03.872Z,34.20
2023-02-23T17:34:40.949Z,34.93
2023-02-23T17:37:11.779Z,30.08
2023-02-23T17:39:47.967Z,25.40
2023-02-23T17:42:24.354Z,30.00
2023-02-23T17:45:01.065Z,26.90
2023-02-23T17:47:33.569Z,36.10
2023-02-23T17:50:11.959Z,33.60
2023-02-23T17:52:48.958Z,35.55
2023-02-23T17:55:20.017Z,32.38
2023-02-23T17:57:58.892Z,36.20
2023-02-23T18:00:29.327Z,30.70
2023-02-23T18:03:06.049Z,31.52
2023-02-23T18:05:36.448Z,29.17
2023-02-23T18:08:12.976Z,29.35
2023-02-23T18:10:43.207Z,29.25
2023-02-23T18:13:23.000Z,30.40
2023-02-23T18:15:54.339Z,32.47
2023-02-23T18:18:32.002Z,36.88
2023-02-23T18:21:03.802Z,30.13
2023-02-23T18:23:42.906Z,28.70
2023-02-23T18:26:16.888Z,26.63
2023-02-23T18:28:57.936Z,29.77
2023-02-23T18:31:30.847Z,30.63
2023-02-23T18:34:09.064Z,30.23
2023-02-23T18:36:42.576Z,30.27
2023-02-23T18:39:19.962Z,29.15
2023-02-23T18:41:51.320Z,29.65
2023-02-23T18:44:32.421Z,29.52
2023-02-23T18:49:40.032Z,23.85
2023-02-23T18:52:11.058Z,30.00
2023-02-23T18:54:49.097Z,25.07
2023-02-23T18:57:19.303Z,24.15
2023-02-23T18:59:59.042Z,31.30
2023-02-23T19:02:29.699Z,30.27
2023-02-23T19:05:09.054Z,31.05
2023-02-23T19:07:39.441Z,24.25
2023-02-23T19:10:19.111Z,30.80
2023-02-23T19:12:49.434Z,27.25
2023-02-23T19:15:29.072Z,24.67
2023-02-23T19:18:06.165Z,19.25
2023-02-23T19:20:36.608Z,19.88
2023-02-23T19:23:15.062Z,23.33
2023-02-23T19:25:54.059Z,26.20
2023-02-23T19:28:31.010Z,27.17
2023-02-23T19:31:09.034Z,23.05
2023-02-23T19:33:47.036Z,21.33
2023-02-23T19:36:29.859Z,22.13
2023-02-23T19:39:12.150Z,23.17
2023-02-23T19:41:43.159Z,28.65
2023-02-23T19:44:21.053Z,27.60
2023-02-23T19:46:54.080Z,24.10
2023-02-23T19:49:31.164Z,24.25
2023-02-23T19:52:01.372Z,26.17
2023-02-23T19:54:41.060Z,27.13
2023-02-23T19:57:11.717Z,31.45
2023-02-23T19:59:49.080Z,20.42
2023-02-23T20:02:22.646Z,22.75
2023-02-23T20:05:00.132Z,20.90
2023-02-23T20:07:30.365Z,21.10
2023-02-23T20:10:08.493Z,24.73
2023-02-23T20:12:39.605Z,26.20
2023-02-23T20:15:21.115Z,25.75
2023-02-23T20:17:54.101Z,19.38
2023-02-23T20:20:32.095Z,28.73
2023-02-23T20:23:11.110Z,20.27
2023-02-23T20:25:44.813Z,25.95
2023-02-23T20:28:26.093Z,19.77
2023-02-23T20:30:57.655Z,21.42
2023-02-23T20:33:38.110Z,21.70
2023-02-23T20:36:08.981Z,23.63
2023-02-23T20:38:46.155Z,23.25
2023-02-23T20:41:16.172Z,21.00
2023-02-23T20:43:53.127Z,23.65
2023-02-23T20:46:23.582Z,18.23
2023-02-23T20:49:03.179Z,21.02
2023-02-23T20:51:33.751Z,20.13
2023-02-23T20:54:15.281Z,20.75
2023-02-23T20:56:58.891Z,20.92
2023-02-23T20:59:39.247Z,20.52
2023-02-23T21:02:13.983Z,22.38
2023-02-23T21:04:53.237Z,19.08
2023-02-23T21:07:25.864Z,20.40
2023-02-23T21:10:06.171Z,20.85
2023-02-23T21:12:36.524Z,20.65
2023-02-23T21:15:16.145Z,15.90
2023-02-23T21:17:46.415Z,22.75
2023-02-23T21:20:26.144Z,22.27
2023-02-23T21:22:56.414Z,18.15
2023-02-23T21:25:36.215Z,22.02
2023-02-23T21:28:06.440Z,19.05
2023-02-23T21:30:43.234Z,18.38
2023-02-23T21:33:20.390Z,22.88
2023-02-23T21:35:54.821Z,25.73
2023-02-23T21:38:33.273Z,20.48
2023-02-23T21:41:03.443Z,18.75
2023-02-23T21:43:41.275Z,18.35
2023-02-23T21:46:13.487Z,18.40
2023-02-23T21:48:50.204Z,19.90
2023-02-23T21:51:23.255Z,19.30
2023-02-23T21:54:00.290Z,20.02
2023-02-23T21:56:32.789Z,19.02
2023-02-23T21:59:10.250Z,26.08
2023-02-23T22:01:49.280Z,20.73
2023-02-23T22:04:19.387Z,20.98
2023-02-23T22:06:58.364Z,20.10
2023-02-23T22:09:28.796Z,17.85
2023-02-23T22:12:05.264Z,23.63
2023-02-23T22:14:35.679Z,19.02
2023-02-23T22:17:13.308Z,22.70
2023-02-23T22:19:43.802Z,16.02
2023-02-23T22:22:26.349Z,24.35
2023-02-23T22:24:56.607Z,23.00
2023-02-23T22:27:33.295Z,18.55
2023-02-23T22:30:05.142Z,19.77
2023-02-23T22:35:13.830Z,20.17
2023-02-23T22:37:53.312Z,18.73
2023-02-23T22:40:24.495Z,19.63
2023-02-23T22:43:01.303Z,19.60
2023-02-23T22:45:31.698Z,20.15
2023-02-23T22:48:09.464Z,21.60
2023-02-23T22:50:42.306Z,28.27
2023-02-23T22:53:21.444Z,19.52
2023-02-23T22:55:52.884Z,23.83
2023-02-23T22:58:30.375Z,18.73
